sensor_id;sensor_type;location;lat;lon;timestamp;temperature;humidity
37528;DHT22;23372;52.050;4.810;2022-08-23T00:01:07;18.50;99.90
37528;DHT22;23372;52.050;4.810;2022-08-23T00:03:34;18.50;99.90
37528;DHT22;23372;52.050;4.810;2022-08-23T00:05:59;18.50;99.90
37528;DHT22;23372;52.050;4.810;2022-08-23T00:08:26;18.50;99.90
37528;DHT22;23372;52.050;4.810;2022-08-23T00:10:51;18.50;99.90
37528;DHT22;23372;52.050;4.810;2022-08-23T00:13:17;18.50;99.90
37528;DHT22;23372;52.050;4.810;2022-08-23T00:15:42;18.50;99.90
37528;DHT22;23372;52.050;4.810;2022-08-23T00:18:08;18.50;99.90
37528;DHT22;23372;52.050;4.810;2022-08-23T00:20:33;18.60;99.90
37528;DHT22;23372;52.050;4.810;2022-08-23T00:22:59;18.60;99.90
37528;DHT22;23372;52.050;4.810;2022-08-23T00:25:24;18.60;99.90
37528;DHT22;23372;52.050;4.810;2022-08-23T00:27:50;18.70;99.90
37528;DHT22;23372;52.050;4.810;2022-08-23T00:30:16;18.80;99.90
37528;DHT22;23372;52.050;4.810;2022-08-23T00:32:43;18.80;99.90
37528;DHT22;23372;52.050;4.810;2022-08-23T00:35:11;18.90;99.90
37528;DHT22;23372;52.050;4.810;2022-08-23T00:37:38;18.90;99.90
37528;DHT22;23372;52.050;4.810;2022-08-23T00:40:06;18.90;99.90
37528;DHT22;23372;52.050;4.810;2022-08-23T00:42:59;18.90;99.90
37528;DHT22;23372;52.050;4.810;2022-08-23T00:48:39;18.90;99.90
37528;DHT22;23372;52.050;4.810;2022-08-23T00:53:39;18.90;99.90
37528;DHT22;23372;52.050;4.810;2022-08-23T00:56:09;18.80;99.90
37528;DHT22;23372;52.050;4.810;2022-08-23T00:58:37;18.90;99.90
37528;DHT22;23372;52.050;4.810;2022-08-23T01:01:05;18.80;99.90
37528;DHT22;23372;52.050;4.810;2022-08-23T01:03:32;18.80;99.90
37528;DHT22;23372;52.050;4.810;2022-08-23T01:06:16;18.90;99.90
37528;DHT22;23372;52.050;4.810;2022-08-23T01:08:47;18.80;99.90
37528;DHT22;23372;52.050;4.810;2022-08-23T01:11:33;18.70;99.90
37528;DHT22;23372;52.050;4.810;2022-08-23T01:14:26;18.70;99.90
37528;DHT22;23372;52.050;4.810;2022-08-23T01:17:01;18.70;99.90
37528;DHT22;23372;52.050;4.810;2022-08-23T01:19:36;18.70;99.90
37528;DHT22;23372;52.050;4.810;2022-08-23T01:22:10;18.60;99.90
37528;DHT22;23372;52.050;4.810;2022-08-23T01:24:37;18.50;99.90
37528;DHT22;23372;52.050;4.810;2022-08-23T01:27:03;18.60;99.90
37528;DHT22;23372;52.050;4.810;2022-08-23T01:29:29;18.60;99.90
37528;DHT22;23372;52.050;4.810;2022-08-23T01:31:55;18.60;99.90
37528;DHT22;23372;52.050;4.810;2022-08-23T01:34:24;18.60;99.90
37528;DHT22;23372;52.050;4.810;2022-08-23T01:36:50;18.60;99.90
37528;DHT22;23372;52.050;4.810;2022-08-23T01:39:16;18.50;99.90
37528;DHT22;23372;52.050;4.810;2022-08-23T01:41:42;18.50;99.90
37528;DHT22;23372;52.050;4.810;2022-08-23T01:44:07;18.50;99.90
37528;DHT22;23372;52.050;4.810;2022-08-23T01:46:34;18.50;99.90
37528;DHT22;23372;52.050;4.810;2022-08-23T01:49:02;18.40;99.90
37528;DHT22;23372;52.050;4.810;2022-08-23T01:51:28;18.30;99.90
37528;DHT22;23372;52.050;4.810;2022-08-23T01:53:54;18.30;99.90
37528;DHT22;23372;52.050;4.810;2022-08-23T01:56:20;18.30;99.90
37528;DHT22;23372;52.050;4.810;2022-08-23T01:58:46;18.30;99.90
37528;DHT22;23372;52.050;4.810;2022-08-23T02:01:12;18.10;99.90
37528;DHT22;23372;52.050;4.810;2022-08-23T02:03:38;18.10;99.90
37528;DHT22;23372;52.050;4.810;2022-08-23T02:06:04;18.00;99.90
37528;DHT22;23372;52.050;4.810;2022-08-23T02:08:29;18.00;99.90
37528;DHT22;23372;52.050;4.810;2022-08-23T02:11:17;18.00;99.90
37528;DHT22;23372;52.050;4.810;2022-08-23T02:13:43;18.00;99.90
37528;DHT22;23372;52.050;4.810;2022-08-23T02:16:09;17.90;99.90
37528;DHT22;23372;52.050;4.810;2022-08-23T02:18:35;18.00;99.90
37528;DHT22;23372;52.050;4.810;2022-08-23T02:21:01;17.90;99.90
37528;DHT22;23372;52.050;4.810;2022-08-23T02:23:26;18.00;99.90
37528;DHT22;23372;52.050;4.810;2022-08-23T02:25:53;18.00;99.90
37528;DHT22;23372;52.050;4.810;2022-08-23T02:28:19;18.00;99.90
37528;DHT22;23372;52.050;4.810;2022-08-23T02:30:45;18.00;99.90
37528;DHT22;23372;52.050;4.810;2022-08-23T02:33:11;18.10;99.90
37528;DHT22;23372;52.050;4.810;2022-08-23T02:35:38;18.10;99.90
37528;DHT22;23372;52.050;4.810;2022-08-23T02:38:08;18.10;99.90
37528;DHT22;23372;52.050;4.810;2022-08-23T02:40:35;18.20;99.90
37528;DHT22;23372;52.050;4.810;2022-08-23T02:43:01;18.20;99.90
37528;DHT22;23372;52.050;4.810;2022-08-23T02:45:28;18.30;99.90
37528;DHT22;23372;52.050;4.810;2022-08-23T02:47:53;18.30;99.90
37528;DHT22;23372;52.050;4.810;2022-08-23T02:50:19;18.30;99.90
37528;DHT22;23372;52.050;4.810;2022-08-23T02:52:46;18.30;99.90
37528;DHT22;23372;52.050;4.810;2022-08-23T02:55:12;18.40;99.90
37528;DHT22;23372;52.050;4.810;2022-08-23T02:57:37;18.30;99.90
37528;DHT22;23372;52.050;4.810;2022-08-23T03:00:06;18.30;99.90
37528;DHT22;23372;52.050;4.810;2022-08-23T03:02:33;18.40;99.90
37528;DHT22;23372;52.050;4.810;2022-08-23T03:04:58;18.40;99.90
37528;DHT22;23372;52.050;4.810;2022-08-23T03:07:24;18.50;99.90
37528;DHT22;23372;52.050;4.810;2022-08-23T03:09:50;18.40;99.90
37528;DHT22;23372;52.050;4.810;2022-08-23T03:12:15;18.50;99.90
37528;DHT22;23372;52.050;4.810;2022-08-23T03:14:41;18.50;99.90
37528;DHT22;23372;52.050;4.810;2022-08-23T03:17:07;18.60;99.90
37528;DHT22;23372;52.050;4.810;2022-08-23T03:19:33;18.60;99.90
37528;DHT22;23372;52.050;4.810;2022-08-23T03:21:58;18.60;99.90
37528;DHT22;23372;52.050;4.810;2022-08-23T03:24:24;18.60;99.90
37528;DHT22;23372;52.050;4.810;2022-08-23T03:26:49;18.60;99.90
37528;DHT22;23372;52.050;4.810;2022-08-23T03:29:16;18.60;99.90
37528;DHT22;23372;52.050;4.810;2022-08-23T03:31:42;18.60;99.90
37528;DHT22;23372;52.050;4.810;2022-08-23T03:34:07;18.60;99.90
37528;DHT22;23372;52.050;4.810;2022-08-23T03:36:34;18.60;99.90
37528;DHT22;23372;52.050;4.810;2022-08-23T03:38:59;18.60;99.90
37528;DHT22;23372;52.050;4.810;2022-08-23T03:41:26;18.60;99.90
37528;DHT22;23372;52.050;4.810;2022-08-23T03:43:51;18.60;99.90
37528;DHT22;23372;52.050;4.810;2022-08-23T03:46:17;18.50;99.90
37528;DHT22;23372;52.050;4.810;2022-08-23T03:48:50;18.50;99.90
37528;DHT22;23372;52.050;4.810;2022-08-23T03:51:18;18.50;99.90
37528;DHT22;23372;52.050;4.810;2022-08-23T03:53:44;18.60;99.90
37528;DHT22;23372;52.050;4.810;2022-08-23T03:56:12;18.60;99.90
37528;DHT22;23372;52.050;4.810;2022-08-23T03:58:44;18.60;99.90
37528;DHT22;23372;52.050;4.810;2022-08-23T04:01:10;18.70;99.90
37528;DHT22;23372;52.050;4.810;2022-08-23T04:03:35;18.60;99.90
37528;DHT22;23372;52.050;4.810;2022-08-23T04:06:01;18.60;99.90
37528;DHT22;23372;52.050;4.810;2022-08-23T04:08:27;18.70;99.90
37528;DHT22;23372;52.050;4.810;2022-08-23T04:10:52;18.70;99.90
37528;DHT22;23372;52.050;4.810;2022-08-23T04:13:18;18.70;99.90
37528;DHT22;23372;52.050;4.810;2022-08-23T04:15:43;18.80;99.90
37528;DHT22;23372;52.050;4.810;2022-08-23T04:18:09;18.70;99.90
37528;DHT22;23372;52.050;4.810;2022-08-23T04:20:35;18.80;99.90
37528;DHT22;23372;52.050;4.810;2022-08-23T04:23:00;18.80;99.90
37528;DHT22;23372;52.050;4.810;2022-08-23T04:25:27;18.70;99.90
37528;DHT22;23372;52.050;4.810;2022-08-23T04:27:53;18.80;99.90
37528;DHT22;23372;52.050;4.810;2022-08-23T04:30:19;18.90;99.90
37528;DHT22;23372;52.050;4.810;2022-08-23T04:32:45;18.90;99.90
37528;DHT22;23372;52.050;4.810;2022-08-23T04:35:11;18.70;99.90
37528;DHT22;23372;52.050;4.810;2022-08-23T04:37:36;18.80;99.90
37528;DHT22;23372;52.050;4.810;2022-08-23T04:40:03;18.70;99.90
37528;DHT22;23372;52.050;4.810;2022-08-23T04:42:47;18.70;99.90
37528;DHT22;23372;52.050;4.810;2022-08-23T04:45:13;18.60;99.90
37528;DHT22;23372;52.050;4.810;2022-08-23T04:47:38;18.60;99.90
37528;DHT22;23372;52.050;4.810;2022-08-23T04:50:06;18.60;99.90
37528;DHT22;23372;52.050;4.810;2022-08-23T04:52:32;18.60;99.90
37528;DHT22;23372;52.050;4.810;2022-08-23T04:54:58;18.50;99.90
37528;DHT22;23372;52.050;4.810;2022-08-23T04:57:23;18.50;99.90
37528;DHT22;23372;52.050;4.810;2022-08-23T04:59:50;18.50;99.90
37528;DHT22;23372;52.050;4.810;2022-08-23T05:02:15;18.50;99.90
37528;DHT22;23372;52.050;4.810;2022-08-23T05:04:41;18.50;99.90
37528;DHT22;23372;52.050;4.810;2022-08-23T05:07:06;18.50;99.90
37528;DHT22;23372;52.050;4.810;2022-08-23T05:09:32;18.50;99.90
37528;DHT22;23372;52.050;4.810;2022-08-23T05:11:57;18.50;99.90
37528;DHT22;23372;52.050;4.810;2022-08-23T05:14:23;18.50;99.90
37528;DHT22;23372;52.050;4.810;2022-08-23T05:16:49;18.50;99.90
37528;DHT22;23372;52.050;4.810;2022-08-23T05:19:14;18.50;99.90
37528;DHT22;23372;52.050;4.810;2022-08-23T05:21:40;18.60;99.90
37528;DHT22;23372;52.050;4.810;2022-08-23T05:24:05;18.60;99.90
37528;DHT22;23372;52.050;4.810;2022-08-23T05:26:31;18.60;99.90
37528;DHT22;23372;52.050;4.810;2022-08-23T05:28:56;18.70;99.90
37528;DHT22;23372;52.050;4.810;2022-08-23T05:31:24;18.70;99.90
37528;DHT22;23372;52.050;4.810;2022-08-23T05:33:50;18.70;99.90
37528;DHT22;23372;52.050;4.810;2022-08-23T05:36:17;18.80;99.90
37528;DHT22;23372;52.050;4.810;2022-08-23T05:38:44;18.90;99.90
37528;DHT22;23372;52.050;4.810;2022-08-23T05:41:14;18.90;99.90
37528;DHT22;23372;52.050;4.810;2022-08-23T05:43:40;18.90;99.90
37528;DHT22;23372;52.050;4.810;2022-08-23T05:46:09;18.90;99.90
37528;DHT22;23372;52.050;4.810;2022-08-23T05:48:36;18.90;99.90
37528;DHT22;23372;52.050;4.810;2022-08-23T05:51:09;19.00;99.90
37528;DHT22;23372;52.050;4.810;2022-08-23T05:53:36;19.10;99.90
37528;DHT22;23372;52.050;4.810;2022-08-23T05:56:24;19.10;99.90
37528;DHT22;23372;52.050;4.810;2022-08-23T05:58:51;19.20;99.90
37528;DHT22;23372;52.050;4.810;2022-08-23T06:01:18;19.20;99.90
37528;DHT22;23372;52.050;4.810;2022-08-23T06:03:44;19.20;99.90
37528;DHT22;23372;52.050;4.810;2022-08-23T06:06:11;19.20;99.90
37528;DHT22;23372;52.050;4.810;2022-08-23T06:08:38;19.20;99.90
37528;DHT22;23372;52.050;4.810;2022-08-23T06:11:16;19.30;99.90
37528;DHT22;23372;52.050;4.810;2022-08-23T06:14:03;19.30;99.90
37528;DHT22;23372;52.050;4.810;2022-08-23T06:16:44;19.20;99.90
37528;DHT22;23372;52.050;4.810;2022-08-23T06:19:11;19.20;99.90
37528;DHT22;23372;52.050;4.810;2022-08-23T06:21:37;19.20;99.90
37528;DHT22;23372;52.050;4.810;2022-08-23T06:24:04;19.20;99.90
37528;DHT22;23372;52.050;4.810;2022-08-23T06:26:32;19.20;99.90
37528;DHT22;23372;52.050;4.810;2022-08-23T06:29:02;19.20;99.90
37528;DHT22;23372;52.050;4.810;2022-08-23T06:31:28;19.10;99.90
37528;DHT22;23372;52.050;4.810;2022-08-23T06:34:33;19.10;99.90
37528;DHT22;23372;52.050;4.810;2022-08-23T06:37:20;19.20;99.90
37528;DHT22;23372;52.050;4.810;2022-08-23T06:39:44;19.30;99.90
37528;DHT22;23372;52.050;4.810;2022-08-23T06:42:13;19.30;99.90
37528;DHT22;23372;52.050;4.810;2022-08-23T06:44:40;19.30;99.90
37528;DHT22;23372;52.050;4.810;2022-08-23T06:47:07;19.40;99.90
37528;DHT22;23372;52.050;4.810;2022-08-23T06:49:33;19.60;99.90
37528;DHT22;23372;52.050;4.810;2022-08-23T06:51:59;19.60;99.90
37528;DHT22;23372;52.050;4.810;2022-08-23T06:54:28;19.70;99.90
37528;DHT22;23372;52.050;4.810;2022-08-23T06:56:54;19.80;99.90
37528;DHT22;23372;52.050;4.810;2022-08-23T06:59:21;19.90;99.90
37528;DHT22;23372;52.050;4.810;2022-08-23T07:01:50;20.00;99.90
37528;DHT22;23372;52.050;4.810;2022-08-23T07:04:24;20.70;99.90
37528;DHT22;23372;52.050;4.810;2022-08-23T07:06:51;21.70;99.90
37528;DHT22;23372;52.050;4.810;2022-08-23T07:09:16;21.80;99.90
37528;DHT22;23372;52.050;4.810;2022-08-23T07:11:43;21.80;99.90
37528;DHT22;23372;52.050;4.810;2022-08-23T07:14:11;21.70;99.90
37528;DHT22;23372;52.050;4.810;2022-08-23T07:16:45;21.60;99.90
37528;DHT22;23372;52.050;4.810;2022-08-23T07:19:13;21.60;99.90
37528;DHT22;23372;52.050;4.810;2022-08-23T07:21:40;21.50;99.90
37528;DHT22;23372;52.050;4.810;2022-08-23T07:24:06;21.40;99.90
37528;DHT22;23372;52.050;4.810;2022-08-23T07:26:33;21.50;99.90
37528;DHT22;23372;52.050;4.810;2022-08-23T07:28:58;21.60;99.90
37528;DHT22;23372;52.050;4.810;2022-08-23T07:31:30;21.70;99.90
37528;DHT22;23372;52.050;4.810;2022-08-23T07:34:01;21.80;99.90
37528;DHT22;23372;52.050;4.810;2022-08-23T07:36:29;21.90;99.90
37528;DHT22;23372;52.050;4.810;2022-08-23T07:38:55;22.00;99.90
37528;DHT22;23372;52.050;4.810;2022-08-23T07:41:26;22.10;99.90
37528;DHT22;23372;52.050;4.810;2022-08-23T07:43:59;22.10;99.90
37528;DHT22;23372;52.050;4.810;2022-08-23T07:46:27;22.20;99.90
37528;DHT22;23372;52.050;4.810;2022-08-23T07:48:53;22.20;99.90
37528;DHT22;23372;52.050;4.810;2022-08-23T07:51:19;22.20;99.90
37528;DHT22;23372;52.050;4.810;2022-08-23T07:53:45;22.40;99.90
37528;DHT22;23372;52.050;4.810;2022-08-23T07:56:12;22.40;99.90
37528;DHT22;23372;52.050;4.810;2022-08-23T07:58:38;22.40;99.90
37528;DHT22;23372;52.050;4.810;2022-08-23T08:01:16;22.50;99.90
37528;DHT22;23372;52.050;4.810;2022-08-23T08:03:44;22.50;99.90
37528;DHT22;23372;52.050;4.810;2022-08-23T08:06:23;22.60;99.90
37528;DHT22;23372;52.050;4.810;2022-08-23T08:08:50;22.70;99.90
37528;DHT22;23372;52.050;4.810;2022-08-23T08:11:19;22.80;99.90
37528;DHT22;23372;52.050;4.810;2022-08-23T08:13:46;22.90;99.90
37528;DHT22;23372;52.050;4.810;2022-08-23T08:16:29;22.80;99.90
37528;DHT22;23372;52.050;4.810;2022-08-23T08:18:57;22.90;99.90
37528;DHT22;23372;52.050;4.810;2022-08-23T08:21:24;23.10;99.90
37528;DHT22;23372;52.050;4.810;2022-08-23T08:23:51;23.10;99.90
37528;DHT22;23372;52.050;4.810;2022-08-23T08:26:17;23.20;99.90
37528;DHT22;23372;52.050;4.810;2022-08-23T08:28:44;23.30;99.90
37528;DHT22;23372;52.050;4.810;2022-08-23T08:31:10;23.20;99.90
37528;DHT22;23372;52.050;4.810;2022-08-23T08:33:36;23.10;99.90
37528;DHT22;23372;52.050;4.810;2022-08-23T08:36:03;23.20;99.90
37528;DHT22;23372;52.050;4.810;2022-08-23T08:38:29;23.40;99.90
37528;DHT22;23372;52.050;4.810;2022-08-23T08:41:13;23.50;99.90
37528;DHT22;23372;52.050;4.810;2022-08-23T08:46:41;23.50;99.90
37528;DHT22;23372;52.050;4.810;2022-08-23T08:49:29;23.50;99.90
37528;DHT22;23372;52.050;4.810;2022-08-23T08:52:21;23.60;99.90
37528;DHT22;23372;52.050;4.810;2022-08-23T08:54:48;23.60;99.90
37528;DHT22;23372;52.050;4.810;2022-08-23T08:57:18;23.70;99.90
37528;DHT22;23372;52.050;4.810;2022-08-23T09:02:20;24.00;99.90
37528;DHT22;23372;52.050;4.810;2022-08-23T09:04:47;24.20;99.90
37528;DHT22;23372;52.050;4.810;2022-08-23T09:10:09;24.50;99.90
37528;DHT22;23372;52.050;4.810;2022-08-23T09:15:34;24.80;99.90
37528;DHT22;23372;52.050;4.810;2022-08-23T09:18:08;24.90;99.90
37528;DHT22;23372;52.050;4.810;2022-08-23T09:20:34;25.00;99.90
37528;DHT22;23372;52.050;4.810;2022-08-23T09:23:13;25.00;99.90
37528;DHT22;23372;52.050;4.810;2022-08-23T09:25:39;25.10;99.90
37528;DHT22;23372;52.050;4.810;2022-08-23T09:28:05;25.10;99.90
37528;DHT22;23372;52.050;4.810;2022-08-23T09:30:52;25.20;99.90
37528;DHT22;23372;52.050;4.810;2022-08-23T09:33:25;25.40;99.90
37528;DHT22;23372;52.050;4.810;2022-08-23T09:36:05;25.70;99.90
37528;DHT22;23372;52.050;4.810;2022-08-23T09:38:32;26.00;99.90
37528;DHT22;23372;52.050;4.810;2022-08-23T09:40:58;26.10;99.90
37528;DHT22;23372;52.050;4.810;2022-08-23T09:43:26;26.00;99.90
37528;DHT22;23372;52.050;4.810;2022-08-23T09:46:00;25.90;99.90
37528;DHT22;23372;52.050;4.810;2022-08-23T09:48:36;25.90;99.90
37528;DHT22;23372;52.050;4.810;2022-08-23T09:51:24;25.80;99.90
37528;DHT22;23372;52.050;4.810;2022-08-23T09:54:01;25.60;99.90
37528;DHT22;23372;52.050;4.810;2022-08-23T09:56:28;25.70;99.90
37528;DHT22;23372;52.050;4.810;2022-08-23T09:58:56;25.90;99.90
37528;DHT22;23372;52.050;4.810;2022-08-23T10:01:29;25.90;99.90
37528;DHT22;23372;52.050;4.810;2022-08-23T10:04:13;25.80;99.90
37528;DHT22;23372;52.050;4.810;2022-08-23T10:06:41;25.80;99.90
37528;DHT22;23372;52.050;4.810;2022-08-23T10:09:27;26.10;99.90
37528;DHT22;23372;52.050;4.810;2022-08-23T10:11:55;26.30;99.90
37528;DHT22;23372;52.050;4.810;2022-08-23T10:14:22;26.40;99.90
37528;DHT22;23372;52.050;4.810;2022-08-23T10:17:08;26.60;99.90
37528;DHT22;23372;52.050;4.810;2022-08-23T10:20:03;26.60;99.90
37528;DHT22;23372;52.050;4.810;2022-08-23T10:22:45;26.80;99.90
37528;DHT22;23372;52.050;4.810;2022-08-23T10:28:10;27.30;99.90
37528;DHT22;23372;52.050;4.810;2022-08-23T10:31:05;27.30;99.90
37528;DHT22;23372;52.050;4.810;2022-08-23T10:39:43;27.30;99.90
37528;DHT22;23372;52.050;4.810;2022-08-23T10:42:18;27.30;99.90
37528;DHT22;23372;52.050;4.810;2022-08-23T10:44:59;27.30;99.90
37528;DHT22;23372;52.050;4.810;2022-08-23T10:47:44;27.30;99.90
37528;DHT22;23372;52.050;4.810;2022-08-23T10:50:17;27.20;99.90
37528;DHT22;23372;52.050;4.810;2022-08-23T10:52:59;27.40;99.90
37528;DHT22;23372;52.050;4.810;2022-08-23T10:55:40;27.40;99.90
37528;DHT22;23372;52.050;4.810;2022-08-23T10:58:34;27.80;99.90
37528;DHT22;23372;52.050;4.810;2022-08-23T11:01:02;28.30;99.90
37528;DHT22;23372;52.050;4.810;2022-08-23T11:03:42;28.50;99.90
37528;DHT22;23372;52.050;4.810;2022-08-23T11:09:27;28.80;99.90
37528;DHT22;23372;52.050;4.810;2022-08-23T11:18:00;29.30;99.90
37528;DHT22;23372;52.050;4.810;2022-08-23T11:23:34;29.10;99.90
37528;DHT22;23372;52.050;4.810;2022-08-23T11:26:01;29.30;99.90
37528;DHT22;23372;52.050;4.810;2022-08-23T11:33:25;29.50;99.90
37528;DHT22;23372;52.050;4.810;2022-08-23T11:41:20;29.60;99.90
37528;DHT22;23372;52.050;4.810;2022-08-23T11:49:20;30.10;99.90
37528;DHT22;23372;52.050;4.810;2022-08-23T11:51:57;30.10;99.90
37528;DHT22;23372;52.050;4.810;2022-08-23T11:55:06;29.50;99.90
37528;DHT22;23372;52.050;4.810;2022-08-23T11:57:49;29.50;99.90
37528;DHT22;23372;52.050;4.810;2022-08-23T12:03:08;29.00;99.90
37528;DHT22;23372;52.050;4.810;2022-08-23T12:23:57;28.50;99.90
37528;DHT22;23372;52.050;4.810;2022-08-23T12:26:32;28.20;99.90
37528;DHT22;23372;52.050;4.810;2022-08-23T12:29:05;28.10;99.90
37528;DHT22;23372;52.050;4.810;2022-08-23T12:31:37;28.30;99.90
37528;DHT22;23372;52.050;4.810;2022-08-23T12:34:27;28.70;99.90
37528;DHT22;23372;52.050;4.810;2022-08-23T12:39:33;29.80;99.90
37528;DHT22;23372;52.050;4.810;2022-08-23T12:42:10;30.10;99.90
37528;DHT22;23372;52.050;4.810;2022-08-23T12:44:41;30.00;99.90
37528;DHT22;23372;52.050;4.810;2022-08-23T12:47:27;30.30;99.90
37528;DHT22;23372;52.050;4.810;2022-08-23T12:50:23;30.50;99.90
37528;DHT22;23372;52.050;4.810;2022-08-23T12:53:04;30.30;99.90
37528;DHT22;23372;52.050;4.810;2022-08-23T12:55:37;29.30;99.90
37528;DHT22;23372;52.050;4.810;2022-08-23T12:58:04;28.80;99.90
37528;DHT22;23372;52.050;4.810;2022-08-23T13:00:40;28.40;99.90
37528;DHT22;23372;52.050;4.810;2022-08-23T13:03:32;28.10;99.90
37528;DHT22;23372;52.050;4.810;2022-08-23T13:06:03;28.20;99.90
37528;DHT22;23372;52.050;4.810;2022-08-23T13:08:58;28.40;99.90
37528;DHT22;23372;52.050;4.810;2022-08-23T13:11:28;28.60;99.90
37528;DHT22;23372;52.050;4.810;2022-08-23T13:13:55;28.80;99.90
37528;DHT22;23372;52.050;4.810;2022-08-23T13:19:16;29.30;99.90
37528;DHT22;23372;52.050;4.810;2022-08-23T13:21:42;29.50;99.90
37528;DHT22;23372;52.050;4.810;2022-08-23T13:24:38;29.30;99.90
37528;DHT22;23372;52.050;4.810;2022-08-23T13:27:19;29.30;99.90
37528;DHT22;23372;52.050;4.810;2022-08-23T13:30:01;29.70;99.90
37528;DHT22;23372;52.050;4.810;2022-08-23T13:32:42;30.10;99.90
37528;DHT22;23372;52.050;4.810;2022-08-23T13:35:34;30.00;99.90
37528;DHT22;23372;52.050;4.810;2022-08-23T13:40:31;28.90;99.90
37528;DHT22;23372;52.050;4.810;2022-08-23T13:43:01;28.60;99.90
37528;DHT22;23372;52.050;4.810;2022-08-23T13:45:33;28.20;99.90
37528;DHT22;23372;52.050;4.810;2022-08-23T13:48:31;28.20;99.90
37528;DHT22;23372;52.050;4.810;2022-08-23T13:53:48;29.10;99.90
37528;DHT22;23372;52.050;4.810;2022-08-23T13:56:14;29.30;99.90
37528;DHT22;23372;52.050;4.810;2022-08-23T13:58:40;28.90;99.90
37528;DHT22;23372;52.050;4.810;2022-08-23T14:01:14;29.10;99.90
37528;DHT22;23372;52.050;4.810;2022-08-23T14:03:41;29.20;99.90
37528;DHT22;23372;52.050;4.810;2022-08-23T14:06:06;29.50;99.90
37528;DHT22;23372;52.050;4.810;2022-08-23T14:08:32;29.10;99.90
37528;DHT22;23372;52.050;4.810;2022-08-23T14:10:57;29.30;99.90
37528;DHT22;23372;52.050;4.810;2022-08-23T14:13:27;29.50;99.90
37528;DHT22;23372;52.050;4.810;2022-08-23T14:16:05;29.70;99.90
37528;DHT22;23372;52.050;4.810;2022-08-23T14:18:33;29.70;99.90
37528;DHT22;23372;52.050;4.810;2022-08-23T14:20:58;28.70;99.90
37528;DHT22;23372;52.050;4.810;2022-08-23T14:23:24;28.50;99.90
37528;DHT22;23372;52.050;4.810;2022-08-23T14:25:53;28.50;99.90
37528;DHT22;23372;52.050;4.810;2022-08-23T14:28:22;28.30;99.90
37528;DHT22;23372;52.050;4.810;2022-08-23T14:30:49;28.20;99.90
37528;DHT22;23372;52.050;4.810;2022-08-23T14:33:15;28.50;99.90
37528;DHT22;23372;52.050;4.810;2022-08-23T14:35:41;29.00;99.90
37528;DHT22;23372;52.050;4.810;2022-08-23T14:38:06;29.30;99.90
37528;DHT22;23372;52.050;4.810;2022-08-23T14:40:34;29.30;99.90
37528;DHT22;23372;52.050;4.810;2022-08-23T14:43:00;29.30;99.90
37528;DHT22;23372;52.050;4.810;2022-08-23T14:45:25;29.50;99.90
37528;DHT22;23372;52.050;4.810;2022-08-23T14:47:51;29.30;99.90
37528;DHT22;23372;52.050;4.810;2022-08-23T14:50:17;29.40;99.90
37528;DHT22;23372;52.050;4.810;2022-08-23T14:52:44;29.60;99.90
37528;DHT22;23372;52.050;4.810;2022-08-23T14:55:11;29.50;99.90
37528;DHT22;23372;52.050;4.810;2022-08-23T14:57:37;29.30;99.90
37528;DHT22;23372;52.050;4.810;2022-08-23T15:00:06;29.30;99.90
37528;DHT22;23372;52.050;4.810;2022-08-23T15:02:33;29.50;99.90
37528;DHT22;23372;52.050;4.810;2022-08-23T15:05:01;29.50;99.90
37528;DHT22;23372;52.050;4.810;2022-08-23T15:07:27;29.40;99.90
37528;DHT22;23372;52.050;4.810;2022-08-23T15:09:52;29.30;99.90
37528;DHT22;23372;52.050;4.810;2022-08-23T15:12:21;29.40;99.90
37528;DHT22;23372;52.050;4.810;2022-08-23T15:14:48;29.60;99.90
37528;DHT22;23372;52.050;4.810;2022-08-23T15:17:14;29.60;99.90
37528;DHT22;23372;52.050;4.810;2022-08-23T15:19:39;29.50;99.90
37528;DHT22;23372;52.050;4.810;2022-08-23T15:22:05;28.90;99.90
37528;DHT22;23372;52.050;4.810;2022-08-23T15:24:31;28.60;99.90
37528;DHT22;23372;52.050;4.810;2022-08-23T15:26:57;28.60;99.90
37528;DHT22;23372;52.050;4.810;2022-08-23T15:29:26;28.80;99.90
37528;DHT22;23372;52.050;4.810;2022-08-23T15:31:53;29.00;99.90
37528;DHT22;23372;52.050;4.810;2022-08-23T15:34:19;29.00;99.90
37528;DHT22;23372;52.050;4.810;2022-08-23T15:36:45;28.80;99.90
37528;DHT22;23372;52.050;4.810;2022-08-23T15:39:10;28.70;99.90
37528;DHT22;23372;52.050;4.810;2022-08-23T15:41:36;28.70;99.90
37528;DHT22;23372;52.050;4.810;2022-08-23T15:44:02;28.60;99.90
37528;DHT22;23372;52.050;4.810;2022-08-23T15:46:28;28.40;99.90
37528;DHT22;23372;52.050;4.810;2022-08-23T15:49:23;27.90;99.90
37528;DHT22;23372;52.050;4.810;2022-08-23T15:51:50;27.30;99.90
37528;DHT22;23372;52.050;4.810;2022-08-23T15:54:15;26.90;99.90
37528;DHT22;23372;52.050;4.810;2022-08-23T15:56:44;26.70;99.90
37528;DHT22;23372;52.050;4.810;2022-08-23T15:59:13;26.40;99.90
37528;DHT22;23372;52.050;4.810;2022-08-23T16:01:41;26.40;99.90
37528;DHT22;23372;52.050;4.810;2022-08-23T16:04:07;26.60;99.90
37528;DHT22;23372;52.050;4.810;2022-08-23T16:06:34;26.80;99.90
37528;DHT22;23372;52.050;4.810;2022-08-23T16:09:01;26.90;99.90
37528;DHT22;23372;52.050;4.810;2022-08-23T16:11:26;26.90;99.90
37528;DHT22;23372;52.050;4.810;2022-08-23T16:13:52;26.70;99.90
37528;DHT22;23372;52.050;4.810;2022-08-23T16:16:24;26.70;99.90
37528;DHT22;23372;52.050;4.810;2022-08-23T16:18:51;26.80;99.90
37528;DHT22;23372;52.050;4.810;2022-08-23T16:21:19;26.90;99.90
37528;DHT22;23372;52.050;4.810;2022-08-23T16:23:45;26.90;99.90
37528;DHT22;23372;52.050;4.810;2022-08-23T16:26:17;26.90;99.90
37528;DHT22;23372;52.050;4.810;2022-08-23T16:28:44;26.80;99.90
37528;DHT22;23372;52.050;4.810;2022-08-23T16:31:10;26.70;99.90
37528;DHT22;23372;52.050;4.810;2022-08-23T16:33:36;26.60;99.90
37528;DHT22;23372;52.050;4.810;2022-08-23T16:36:02;26.60;99.90
37528;DHT22;23372;52.050;4.810;2022-08-23T16:38:27;26.50;99.90
37528;DHT22;23372;52.050;4.810;2022-08-23T16:40:53;26.60;99.90
37528;DHT22;23372;52.050;4.810;2022-08-23T16:43:19;26.40;99.90
37528;DHT22;23372;52.050;4.810;2022-08-23T16:45:44;26.40;99.90
37528;DHT22;23372;52.050;4.810;2022-08-23T16:48:10;26.50;99.90
37528;DHT22;23372;52.050;4.810;2022-08-23T16:50:35;26.50;99.90
37528;DHT22;23372;52.050;4.810;2022-08-23T16:53:01;26.50;99.90
37528;DHT22;23372;52.050;4.810;2022-08-23T16:55:27;26.40;99.90
37528;DHT22;23372;52.050;4.810;2022-08-23T16:57:53;26.40;99.90
37528;DHT22;23372;52.050;4.810;2022-08-23T17:00:18;26.20;99.90
37528;DHT22;23372;52.050;4.810;2022-08-23T17:02:44;26.20;99.90
37528;DHT22;23372;52.050;4.810;2022-08-23T17:05:13;26.10;99.90
37528;DHT22;23372;52.050;4.810;2022-08-23T17:07:39;26.00;99.90
37528;DHT22;23372;52.050;4.810;2022-08-23T17:10:06;25.90;99.90
37528;DHT22;23372;52.050;4.810;2022-08-23T17:12:34;25.90;99.90